Time;durP1;ratioP1;P1;durP2;ratioP2;P2;SDS_P1;SDS_P2;PMS_P1;PMS_P2;Temp;Humidity;BMP_temperature;BMP_pressure;BME280_temperature;BME280_humidity;BME280_pressure;Samples;Min_cycle;Max_cycle;Signal;HPM_P1;HPM_P2
2023/12/31 00:02:10;;;;;;;4.40;4.00;;;;;;;5.64;85.76;95037.06;4994764;28;20199;-77
2023/12/31 00:04:35;;;;;;;4.70;3.73;;;;;;;5.61;85.63;95033.94;4990818;28;20191;-78
2023/12/31 00:07:01;;;;;;;5.23;4.13;;;;;;;5.60;85.97;95033.13;4989785;28;20291;-77
2023/12/31 00:09:26;;;;;;;4.87;4.00;;;;;;;5.51;86.02;95022.78;4994407;28;20201;-78
2023/12/31 00:11:52;;;;;;;6.77;4.73;;;;;;;5.35;87.10;95020.66;4992963;28;20692;-78
2023/12/31 00:14:17;;;;;;;5.33;4.20;;;;;;;5.46;87.10;95024.91;4988304;28;20311;-78
2023/12/31 00:16:42;;;;;;;6.03;4.10;;;;;;;5.38;87.27;95002.38;4993287;28;20219;-77
2023/12/31 00:19:08;;;;;;;7.63;4.63;;;;;;;5.40;87.32;95008.25;4992157;28;20195;-77
2023/12/31 00:21:33;;;;;;;5.30;4.77;;;;;;;5.52;87.09;94998.66;4992140;28;20390;-78
2023/12/31 00:23:58;;;;;;;6.00;4.90;;;;;;;5.53;86.85;94992.56;4995916;28;20563;-77
2023/12/31 00:26:24;;;;;;;9.40;4.83;;;;;;;5.42;87.51;94990.91;4993590;28;20187;-78
2023/12/31 00:28:49;;;;;;;4.50;4.10;;;;;;;5.40;87.24;94983.31;4995407;28;20219;-78
2023/12/31 00:31:14;;;;;;;7.37;4.67;;;;;;;5.54;87.37;94989.84;4995620;28;20218;-77
2023/12/31 00:33:40;;;;;;;6.67;5.00;;;;;;;5.47;87.43;94986.16;4997885;28;20190;-77
2023/12/31 00:36:05;;;;;;;7.00;4.60;;;;;;;5.47;87.04;94977.63;4979421;28;20199;-78
2023/12/31 00:38:30;;;;;;;5.47;4.77;;;;;;;5.54;86.82;94976.16;4992329;28;20227;-77
2023/12/31 00:40:56;;;;;;;7.73;5.37;;;;;;;5.45;87.11;94970.03;4999340;28;20190;-78
2023/12/31 00:43:21;;;;;;;6.00;4.50;;;;;;;5.46;87.42;94975.97;4997562;28;20175;-78
2023/12/31 00:45:47;;;;;;;6.33;4.73;;;;;;;5.30;88.05;94974.72;4987761;28;20207;-78
2023/12/31 00:48:12;;;;;;;6.00;4.73;;;;;;;5.35;87.62;94964.03;5014451;28;20195;-77
2023/12/31 00:50:37;;;;;;;5.27;4.53;;;;;;;5.32;87.69;94959.97;5018175;28;20191;-77
2023/12/31 00:53:03;;;;;;;6.50;4.63;;;;;;;5.31;87.38;94955.75;4996817;28;20191;-77
2023/12/31 00:55:28;;;;;;;7.10;4.27;;;;;;;5.32;87.18;94954.81;5004370;28;20184;-78
2023/12/31 00:57:54;;;;;;;6.60;5.00;;;;;;;5.37;86.70;94942.34;4994363;28;20207;-78
2023/12/31 01:00:20;;;;;;;5.17;4.63;;;;;;;5.29;87.03;94946.50;4999472;28;20184;-78
2023/12/31 01:02:45;;;;;;;5.40;4.40;;;;;;;5.22;86.84;94940.28;4995588;28;20183;-77
2023/12/31 01:05:10;;;;;;;9.10;4.83;;;;;;;5.26;87.42;94944.22;4980649;28;20213;-78
2023/12/31 01:07:36;;;;;;;5.23;4.27;;;;;;;5.27;86.66;94938.94;4995344;28;20207;-78
2023/12/31 01:10:01;;;;;;;6.23;4.63;;;;;;;5.13;86.89;94939.28;4982802;28;20198;-78
2023/12/31 01:12:26;;;;;;;5.87;4.33;;;;;;;5.04;88.09;94937.50;4995516;28;20686;-78
2023/12/31 01:14:52;;;;;;;6.77;4.93;;;;;;;5.05;87.86;94929.66;4980259;28;20187;-78
2023/12/31 01:17:18;;;;;;;6.30;4.80;;;;;;;5.10;87.64;94929.25;4996427;28;20225;-78
2023/12/31 01:19:43;;;;;;;5.53;4.77;;;;;;;5.12;87.39;94929.91;4996492;28;20187;-78
2023/12/31 01:22:08;;;;;;;5.80;4.33;;;;;;;5.14;87.02;94919.53;4995397;28;20183;-78
2023/12/31 01:24:34;;;;;;;5.80;4.50;;;;;;;5.09;87.08;94927.63;5000716;28;20192;-78
2023/12/31 01:26:59;;;;;;;8.00;4.50;;;;;;;5.01;87.05;94924.88;4980049;28;20261;-78
2023/12/31 01:29:24;;;;;;;7.80;4.43;;;;;;;5.03;87.01;94912.69;4993530;28;20278;-78
2023/12/31 01:31:50;;;;;;;5.67;4.67;;;;;;;5.00;87.38;94911.19;4993412;28;20211;-77
2023/12/31 01:34:15;;;;;;;5.33;4.33;;;;;;;5.01;87.40;94909.44;4997149;28;20245;-78
2023/12/31 01:36:41;;;;;;;7.97;4.97;;;;;;;4.92;87.84;94910.19;4979848;28;20652;-78
2023/12/31 01:39:07;;;;;;;5.63;4.00;;;;;;;4.92;88.12;94900.72;4994228;28;20344;-78
2023/12/31 01:41:32;;;;;;;5.30;3.97;;;;;;;4.88;88.00;94893.41;4996203;28;20654;-78
2023/12/31 01:44:02;;;;;;;6.23;4.40;;;;;;;4.98;88.06;94899.41;4996448;28;20191;-78
2023/12/31 01:46:29;;;;;;;5.47;4.53;;;;;;;4.94;88.31;94900.59;4995956;28;20234;-78
2023/12/31 01:48:55;;;;;;;5.27;4.10;;;;;;;4.98;87.59;94900.22;4980335;28;20183;-78
2023/12/31 01:51:21;;;;;;;5.80;4.10;;;;;;;5.03;87.75;94889.53;4977662;28;20248;-78
2023/12/31 01:53:46;;;;;;;5.47;4.47;;;;;;;5.07;87.96;94888.34;4995769;28;20191;-78
2023/12/31 01:56:12;;;;;;;4.37;3.90;;;;;;;5.01;87.77;94884.50;4994726;28;20668;-78
2023/12/31 01:58:37;;;;;;;4.90;4.03;;;;;;;5.06;87.96;94881.56;4996424;28;20190;-77
2023/12/31 02:01:04;;;;;;;5.93;4.00;;;;;;;5.11;87.48;94869.09;4997356;28;20187;-78
2023/12/31 02:03:30;;;;;;;5.73;4.20;;;;;;;5.19;87.04;94874.41;4994517;28;20202;-77
2023/12/31 02:05:56;;;;;;;4.80;3.60;;;;;;;5.16;87.14;94876.44;4993215;28;20201;-78
2023/12/31 02:08:21;;;;;;;6.03;4.23;;;;;;;5.24;86.99;94880.00;4996783;28;20206;-77
2023/12/31 02:10:46;;;;;;;5.10;4.30;;;;;;;5.17;87.47;94881.44;4979828;28;20188;-78
2023/12/31 02:13:12;;;;;;;5.17;3.73;;;;;;;5.22;86.86;94871.59;4994989;28;20637;-77
2023/12/31 02:15:37;;;;;;;4.93;4.07;;;;;;;5.27;86.54;94872.00;4997622;28;20194;-78
2023/12/31 02:18:03;;;;;;;7.23;4.17;;;;;;;5.35;86.46;94866.19;4996293;28;20293;-77
2023/12/31 02:20:30;;;;;;;5.83;4.00;;;;;;;5.31;86.75;94862.25;4997616;28;20205;-77
2023/12/31 02:22:56;;;;;;;5.00;3.73;;;;;;;5.38;86.19;94853.84;4994630;28;20194;-78
2023/12/31 02:25:27;;;;;;;4.20;3.40;;;;;;;5.43;86.04;94850.09;5000744;28;20214;-78
2023/12/31 02:27:52;;;;;;;7.33;3.90;;;;;;;5.43;86.33;94855.22;4994103;28;20203;-78
2023/12/31 02:30:19;;;;;;;4.43;3.43;;;;;;;5.57;85.36;94845.38;4978010;28;20184;-77
2023/12/31 02:32:44;;;;;;;5.00;4.07;;;;;;;5.61;84.85;94835.59;4977900;28;20227;-77
2023/12/31 02:35:10;;;;;;;4.03;3.30;;;;;;;5.63;84.18;94826.78;4983683;28;20578;-78
2023/12/31 02:37:35;;;;;;;5.33;3.70;;;;;;;5.78;83.96;94829.78;4974212;28;20263;-77
2023/12/31 02:40:00;;;;;;;5.60;3.90;;;;;;;5.79;83.96;94815.13;4995036;28;20571;-78
2023/12/31 02:42:26;;;;;;;5.07;3.50;;;;;;;5.80;83.77;94817.56;5011712;28;20176;-77
2023/12/31 02:44:51;;;;;;;5.30;3.73;;;;;;;5.75;84.04;94811.22;4996786;28;20196;-78
2023/12/31 02:47:16;;;;;;;5.57;3.93;;;;;;;5.88;83.33;94817.69;4978961;28;20218;-78
2023/12/31 02:49:42;;;;;;;6.20;4.37;;;;;;;6.05;82.77;94799.94;4994864;28;20623;-78
2023/12/31 02:52:09;;;;;;;5.43;4.00;;;;;;;5.96;82.75;94797.25;4995337;28;20632;-78
2023/12/31 02:54:35;;;;;;;7.63;4.27;;;;;;;6.04;82.64;94798.31;4996170;28;20238;-78
2023/12/31 02:57:00;;;;;;;7.27;3.77;;;;;;;6.07;82.30;94791.13;4996258;28;20232;-78
2023/12/31 02:59:26;;;;;;;4.60;3.70;;;;;;;6.08;82.03;94777.28;4998134;28;20183;-78
2023/12/31 03:01:52;;;;;;;5.90;4.10;;;;;;;6.11;81.95;94777.00;4978372;28;20191;-78
2023/12/31 03:04:17;;;;;;;4.40;3.40;;;;;;;6.09;81.52;94771.16;4993989;28;20179;-78
2023/12/31 03:06:42;;;;;;;5.43;3.77;;;;;;;5.93;81.79;94774.34;4977170;28;21066;-78
2023/12/31 03:09:09;;;;;;;7.47;4.00;;;;;;;6.02;81.79;94770.13;4994348;28;20207;-78
2023/12/31 03:11:35;;;;;;;4.57;4.00;;;;;;;5.96;82.28;94773.25;4980523;28;20196;-77
2023/12/31 03:14:00;;;;;;;5.60;3.47;;;;;;;5.88;81.78;94775.66;4994199;28;20195;-78
2023/12/31 03:16:26;;;;;;;6.47;4.10;;;;;;;5.89;82.01;94752.31;4996528;28;20680;-78
2023/12/31 03:18:54;;;;;;;4.37;3.90;;;;;;;5.94;81.57;94750.19;4977316;28;20238;-78
2023/12/31 03:21:19;;;;;;;5.63;4.23;;;;;;;5.95;81.49;94738.13;4994843;28;20178;-78
2023/12/31 03:23:45;;;;;;;6.40;4.20;;;;;;;5.88;81.69;94739.59;4996599;28;20195;-78
2023/12/31 03:26:11;;;;;;;4.53;3.73;;;;;;;5.92;81.16;94738.41;4981577;28;20191;-78
2023/12/31 03:28:36;;;;;;;3.73;3.33;;;;;;;5.77;81.96;94737.97;4976821;28;20235;-77
2023/12/31 03:31:03;;;;;;;4.47;3.80;;;;;;;5.88;81.44;94729.28;4974920;28;20638;-78
2023/12/31 03:33:29;;;;;;;4.57;3.90;;;;;;;5.85;81.42;94724.41;4978802;28;20194;-77
2023/12/31 03:35:54;;;;;;;4.47;4.07;;;;;;;5.79;81.51;94735.25;4995818;28;20188;-78
2023/12/31 03:38:19;;;;;;;5.30;3.97;;;;;;;5.82;81.88;94729.81;4993352;28;20259;-77
2023/12/31 03:40:45;;;;;;;5.27;3.60;;;;;;;5.87;81.37;94723.31;4994880;28;20237;-78
2023/12/31 03:43:10;;;;;;;5.43;4.13;;;;;;;5.95;80.91;94715.72;4996405;28;20212;-77
2023/12/31 03:45:35;;;;;;;5.40;3.80;;;;;;;5.88;81.28;94711.25;4978974;28;20202;-78
2023/12/31 03:48:01;;;;;;;5.53;4.10;;;;;;;5.88;81.24;94706.09;4992465;28;20212;-78
2023/12/31 03:50:26;;;;;;;6.07;4.23;;;;;;;5.76;81.56;94702.88;4997643;28;20183;-77
2023/12/31 03:52:52;;;;;;;5.40;4.43;;;;;;;5.84;81.44;94703.00;4977252;28;20789;-78
2023/12/31 03:55:17;;;;;;;5.50;3.70;;;;;;;5.87;80.80;94700.13;4995035;28;20213;-78
2023/12/31 03:57:42;;;;;;;6.20;4.17;;;;;;;5.88;80.68;94688.03;4992506;28;20287;-78
2023/12/31 04:00:08;;;;;;;6.90;4.13;;;;;;;5.86;81.19;94692.53;4998954;28;20539;-78
2023/12/31 04:02:34;;;;;;;6.03;4.33;;;;;;;5.85;80.99;94683.19;4975676;28;20180;-78
2023/12/31 04:05:00;;;;;;;4.73;3.77;;;;;;;5.87;80.83;94678.69;4993109;28;20190;-78
2023/12/31 04:07:25;;;;;;;4.73;4.10;;;;;;;5.77;81.05;94671.00;4993262;28;20614;-78
2023/12/31 04:09:51;;;;;;;4.80;4.30;;;;;;;5.76;80.88;94668.56;4996305;28;20191;-78
2023/12/31 04:12:16;;;;;;;5.93;4.33;;;;;;;5.77;81.15;94671.00;4994982;28;20595;-78
2023/12/31 04:14:42;;;;;;;5.83;3.90;;;;;;;5.79;81.32;94663.94;4993289;28;20199;-78
2023/12/31 04:17:07;;;;;;;7.27;4.43;;;;;;;5.80;81.14;94662.97;4995413;28;20219;-78
2023/12/31 04:19:32;;;;;;;6.43;4.23;;;;;;;5.68;81.60;94657.19;4994729;28;20192;-78
2023/12/31 04:21:58;;;;;;;5.63;4.43;;;;;;;5.79;80.93;94663.94;4993667;28;20187;-77
2023/12/31 04:24:23;;;;;;;6.23;4.10;;;;;;;5.64;81.73;94655.81;4997704;28;20199;-78
2023/12/31 04:26:49;;;;;;;4.80;4.30;;;;;;;5.73;81.60;94649.03;4978216;28;20218;-78
2023/12/31 04:29:14;;;;;;;4.73;4.20;;;;;;;5.77;81.22;94654.72;4994038;28;20210;-78
2023/12/31 04:31:41;;;;;;;6.60;4.93;;;;;;;5.70;81.34;94649.31;4991468;28;20222;-78
2023/12/31 04:34:06;;;;;;;6.10;4.43;;;;;;;5.67;81.46;94647.03;4997721;28;20218;-78
2023/12/31 04:36:32;;;;;;;5.53;4.10;;;;;;;5.61;81.35;94638.09;4996139;28;20717;-78
2023/12/31 04:38:57;;;;;;;6.00;4.57;;;;;;;5.78;80.98;94631.41;4992195;28;20605;-78
2023/12/31 04:41:22;;;;;;;5.60;4.37;;;;;;;5.75;81.18;94636.84;4978702;28;20645;-78
2023/12/31 04:43:48;;;;;;;4.57;3.93;;;;;;;5.72;81.30;94629.38;4995350;28;20183;-78
2023/12/31 04:46:13;;;;;;;6.53;4.50;;;;;;;5.74;81.15;94624.88;4996879;28;20271;-78
2023/12/31 04:48:41;;;;;;;6.13;4.37;;;;;;;5.78;80.69;94617.69;4993274;28;20202;-78
2023/12/31 04:51:06;;;;;;;4.60;3.77;;;;;;;5.81;80.44;94623.38;4998979;28;20187;-78
2023/12/31 04:53:36;;;;;;;6.27;3.70;;;;;;;5.86;80.45;94620.38;4993949;28;20196;-78
2023/12/31 04:56:01;;;;;;;4.53;3.53;;;;;;;5.81;80.08;94618.22;4977463;28;20232;-78
2023/12/31 04:58:27;;;;;;;5.33;4.10;;;;;;;5.72;80.15;94616.50;4991380;28;20239;-77
2023/12/31 05:00:52;;;;;;;5.37;4.30;;;;;;;5.79;79.91;94621.91;4997676;28;20195;-78
2023/12/31 05:03:17;;;;;;;5.90;3.83;;;;;;;5.74;80.05;94617.16;4974866;28;20207;-78
2023/12/31 05:05:43;;;;;;;5.67;4.00;;;;;;;5.78;79.98;94620.28;4993399;28;20188;-78
2023/12/31 05:08:08;;;;;;;5.53;4.30;;;;;;;5.74;80.18;94611.19;4993681;28;20239;-78
2023/12/31 05:10:36;;;;;;;5.93;4.53;;;;;;;5.74;80.31;94612.00;4996432;28;20188;-78
2023/12/31 05:13:04;;;;;;;5.53;4.63;;;;;;;5.78;79.55;94605.63;4993011;28;20674;-78
2023/12/31 05:15:29;;;;;;;4.83;4.20;;;;;;;5.71;80.34;94604.56;4981145;28;20187;-78
2023/12/31 05:17:55;;;;;;;7.70;5.07;;;;;;;5.65;80.98;94600.81;4996527;28;20207;-78
2023/12/31 05:20:20;;;;;;;5.77;4.73;;;;;;;5.67;80.80;94601.47;4981641;28;20725;-78
2023/12/31 05:22:45;;;;;;;8.17;5.03;;;;;;;5.56;80.62;94599.03;4997232;28;20188;-78
2023/12/31 05:25:11;;;;;;;7.83;5.47;;;;;;;5.70;80.33;94592.66;5000705;28;20203;-77
2023/12/31 05:27:36;;;;;;;6.07;4.43;;;;;;;5.59;80.73;94595.41;4996789;28;20242;-78
2023/12/31 05:30:01;;;;;;;5.40;4.90;;;;;;;5.59;80.60;94590.25;4995886;28;20615;-78
2023/12/31 05:32:27;;;;;;;6.10;4.33;;;;;;;5.64;80.02;94595.78;4995535;28;20276;-78
2023/12/31 05:34:52;;;;;;;6.10;4.23;;;;;;;5.76;79.35;94588.69;4980914;28;20195;-78
2023/12/31 05:37:17;;;;;;;5.80;4.87;;;;;;;5.65;80.08;94580.22;4999144;28;20214;-78
2023/12/31 05:39:43;;;;;;;5.20;4.70;;;;;;;5.75;79.44;94585.31;4994264;28;20202;-78
2023/12/31 05:42:08;;;;;;;5.77;4.50;;;;;;;5.75;79.48;94585.31;4996909;28;20199;-78
2023/12/31 05:44:33;;;;;;;6.90;4.67;;;;;;;5.72;79.55;94590.72;4996574;28;20190;-78
2023/12/31 05:46:59;;;;;;;5.00;4.50;;;;;;;5.71;79.46;94590.88;4999710;28;20259;-78
2023/12/31 05:49:29;;;;;;;7.87;4.07;;;;;;;5.76;79.19;94588.69;5016530;28;20191;-78
2023/12/31 05:51:54;;;;;;;5.03;4.07;;;;;;;5.72;79.12;94584.78;5019420;28;20287;-78
2023/12/31 05:54:19;;;;;;;5.40;4.13;;;;;;;5.73;79.16;94582.03;5017940;28;20187;-78
2023/12/31 05:56:45;;;;;;;5.43;4.10;;;;;;;5.73;78.78;94579.47;5012316;28;20227;-78
2023/12/31 05:59:10;;;;;;;6.10;4.50;;;;;;;5.73;78.88;94566.59;4996764;28;20192;-78
2023/12/31 06:01:36;;;;;;;5.70;4.57;;;;;;;5.74;79.19;94554.53;4997783;28;20271;-79
2023/12/31 06:04:02;;;;;;;5.50;4.37;;;;;;;5.80;78.62;94557.34;4996517;28;20187;-78
2023/12/31 06:06:33;;;;;;;5.90;4.83;;;;;;;5.81;78.86;94558.97;4992717;28;20184;-79
2023/12/31 06:08:58;;;;;;;5.73;4.30;;;;;;;5.80;78.80;94570.22;4996685;28;20198;-78
2023/12/31 06:11:24;;;;;;;5.37;4.20;;;;;;;5.83;78.81;94566.53;4999965;28;20569;-79
2023/12/31 06:13:49;;;;;;;6.03;4.70;;;;;;;5.84;79.11;94573.34;4995322;28;20709;-78
2023/12/31 06:16:14;;;;;;;5.53;4.70;;;;;;;6.02;78.38;94576.00;4981806;28;20570;-78
2023/12/31 06:18:39;;;;;;;5.80;4.67;;;;;;;5.94;78.00;94574.13;4977084;28;20581;-78
2023/12/31 06:21:05;;;;;;;8.03;4.70;;;;;;;6.01;78.11;94579.50;4998610;28;20259;-78
2023/12/31 06:23:30;;;;;;;6.57;4.93;;;;;;;6.08;78.07;94570.25;4978324;28;20192;-78
2023/12/31 06:25:56;;;;;;;6.93;4.27;;;;;;;6.07;78.18;94569.44;4982478;28;20188;-78
2023/12/31 06:28:21;;;;;;;5.70;4.67;;;;;;;6.03;78.76;94564.75;4996322;28;20207;-79
2023/12/31 06:30:47;;;;;;;6.17;4.50;;;;;;;6.07;78.35;94577.19;4996051;28;20910;-78
2023/12/31 06:33:12;;;;;;;7.80;4.80;;;;;;;6.14;77.76;94573.06;4994238;28;20208;-79
2023/12/31 06:35:38;;;;;;;5.43;4.83;;;;;;;6.13;78.09;94573.22;4999024;28;20747;-78
2023/12/31 06:38:03;;;;;;;6.63;4.93;;;;;;;6.06;77.97;94562.69;4996028;28;20778;-78
2023/12/31 06:40:28;;;;;;;8.20;5.23;;;;;;;6.09;78.26;94564.16;4994915;28;20186;-78
2023/12/31 06:42:54;;;;;;;4.60;4.10;;;;;;;6.06;78.54;94575.56;4980398;28;20205;-78
2023/12/31 06:45:19;;;;;;;5.33;4.43;;;;;;;6.10;78.22;94571.75;4981482;28;20278;-78
2023/12/31 06:47:44;;;;;;;5.80;4.30;;;;;;;6.25;77.70;94552.25;4996231;28;20204;-78
2023/12/31 06:50:11;;;;;;;4.43;4.03;;;;;;;6.02;77.83;94584.56;4995575;28;20176;-78
2023/12/31 06:52:36;;;;;;;4.07;3.00;;;;;;;6.30;76.51;94559.56;4998595;28;20223;-78
2023/12/31 06:55:02;;;;;;;3.43;2.60;;;;;;;6.42;74.09;94568.69;4996872;28;20218;-79
2023/12/31 06:57:27;;;;;;;5.17;2.43;;;;;;;6.70;73.09;94577.19;4996340;28;20689;-78
2023/12/31 06:59:53;;;;;;;3.60;2.70;;;;;;;6.77;70.70;94565.31;4981028;28;20188;-79
2023/12/31 07:02:19;;;;;;;3.67;2.13;;;;;;;6.72;69.63;94575.28;4997963;28;20265;-78
2023/12/31 07:04:44;;;;;;;3.27;2.03;;;;;;;7.01;68.34;94562.13;4995304;28;20283;-78
2023/12/31 07:07:09;;;;;;;2.03;1.83;;;;;;;7.10;67.59;94578.50;4978915;28;20239;-78
2023/12/31 07:09:35;;;;;;;2.13;1.80;;;;;;;7.17;66.86;94571.78;4980300;28;20279;-78
2023/12/31 07:12:00;;;;;;;3.20;2.00;;;;;;;7.12;66.07;94557.69;4982282;28;20243;-78
2023/12/31 07:14:26;;;;;;;1.97;1.77;;;;;;;7.08;65.54;94562.34;4979169;28;20194;-78
2023/12/31 07:16:52;;;;;;;2.63;1.57;;;;;;;7.22;65.51;94569.53;4997264;28;20210;-78
2023/12/31 07:19:17;;;;;;;2.53;2.13;;;;;;;7.23;64.76;94566.00;4997187;28;20187;-78
2023/12/31 07:21:44;;;;;;;2.67;1.83;;;;;;;7.41;64.19;94560.78;4981017;28;20557;-78
2023/12/31 07:24:09;;;;;;;1.50;1.40;;;;;;;7.19;63.37;94561.28;4980828;28;20183;-78
2023/12/31 07:26:35;;;;;;;2.33;2.00;;;;;;;7.41;63.52;94563.38;4999851;28;20212;-78
2023/12/31 07:29:01;;;;;;;1.93;1.60;;;;;;;7.44;63.15;94560.50;4995512;28;20199;-78
2023/12/31 07:31:26;;;;;;;2.30;1.73;;;;;;;7.34;63.31;94565.75;4994638;28;20211;-78
2023/12/31 07:33:52;;;;;;;2.20;1.30;;;;;;;7.37;62.27;94564.63;4993961;28;20180;-78
2023/12/31 07:36:17;;;;;;;1.47;1.20;;;;;;;7.42;61.85;94557.25;4984189;28;20187;-79
2023/12/31 07:38:43;;;;;;;2.00;1.10;;;;;;;7.43;60.14;94558.88;4976827;28;21041;-79
2023/12/31 07:41:12;;;;;;;3.40;1.20;;;;;;;7.65;59.71;94555.75;4995934;28;20533;-78
2023/12/31 07:43:38;;;;;;;1.37;1.27;;;;;;;7.70;59.98;94532.06;4994043;28;20847;-78
2023/12/31 07:46:04;;;;;;;1.80;1.27;;;;;;;7.65;60.59;94537.66;4998178;28;20187;-79
2023/12/31 07:48:29;;;;;;;1.37;1.27;;;;;;;7.64;60.26;94545.56;4994528;28;20215;-78
2023/12/31 07:50:55;;;;;;;1.47;1.37;;;;;;;7.62;60.71;94540.56;4975563;28;20720;-77
2023/12/31 07:53:20;;;;;;;3.07;1.97;;;;;;;7.63;60.79;94538.78;4975220;28;20215;-77
2023/12/31 07:55:47;;;;;;;1.67;1.57;;;;;;;7.52;61.76;94539.88;4978623;28;20237;-77
2023/12/31 07:58:13;;;;;;;3.10;1.70;;;;;;;7.43;61.96;94533.03;4991831;28;20214;-77
2023/12/31 08:00:38;;;;;;;1.90;1.73;;;;;;;7.50;62.15;94539.19;4995275;28;20215;-77
2023/12/31 08:03:04;;;;;;;1.87;1.70;;;;;;;7.48;61.90;94535.16;4993133;28;20204;-76
2023/12/31 08:05:32;;;;;;;2.27;1.43;;;;;;;7.30;61.91;94532.63;4994293;28;20191;-77
2023/12/31 08:07:57;;;;;;;2.67;1.90;;;;;;;7.49;62.03;94544.53;4992203;28;20215;-76
2023/12/31 08:10:23;;;;;;;2.00;1.60;;;;;;;7.50;62.71;94534.03;4996797;28;20266;-77
2023/12/31 08:12:49;;;;;;;1.97;1.70;;;;;;;7.47;62.83;94523.22;4993412;28;20196;-77
2023/12/31 08:15:14;;;;;;;1.87;1.60;;;;;;;7.43;63.70;94524.50;4991477;28;20219;-77
2023/12/31 08:17:41;;;;;;;2.67;2.03;;;;;;;7.43;63.91;94533.03;4993958;28;20212;-77
2023/12/31 08:20:07;;;;;;;3.37;1.90;;;;;;;7.34;64.69;94532.19;4978449;28;20649;-77
2023/12/31 08:22:32;;;;;;;1.50;1.40;;;;;;;7.21;64.73;94529.19;4992292;28;20226;-77
2023/12/31 08:24:58;;;;;;;2.47;2.10;;;;;;;7.23;64.94;94531.63;4995788;28;20199;-77
2023/12/31 08:27:23;;;;;;;2.60;2.00;;;;;;;7.19;65.12;94525.16;4996418;28;20229;-77
2023/12/31 08:29:48;;;;;;;2.47;1.97;;;;;;;7.25;64.92;94525.34;4994423;28;20238;-77
2023/12/31 08:32:18;;;;;;;2.30;2.10;;;;;;;7.25;65.00;94520.19;4977821;28;20207;-77
2023/12/31 08:34:45;;;;;;;2.53;2.23;;;;;;;7.24;64.62;94518.53;4997590;28;20302;-77
2023/12/31 08:37:10;;;;;;;2.33;1.80;;;;;;;7.31;64.04;94526.50;4998518;28;20215;-78
2023/12/31 08:39:40;;;;;;;2.93;1.90;;;;;;;7.18;64.31;94520.94;4992019;28;20209;-77
2023/12/31 08:42:06;;;;;;;2.30;2.10;;;;;;;7.13;64.03;94513.63;4986998;28;20203;-78
2023/12/31 08:44:31;;;;;;;2.07;1.87;;;;;;;7.14;63.63;94504.94;4993861;28;20187;-78
2023/12/31 08:46:56;;;;;;;2.57;1.90;;;;;;;7.18;63.61;94497.72;4991471;28;20235;-80
2023/12/31 08:49:24;;;;;;;2.03;1.83;;;;;;;7.10;63.65;94503.63;4994199;28;20650;-78
2023/12/31 08:51:50;;;;;;;2.47;2.23;;;;;;;7.18;63.45;94497.72;5000134;28;20219;-78
2023/12/31 08:54:15;;;;;;;2.37;1.97;;;;;;;7.28;62.92;94496.63;5000670;28;20267;-78
2023/12/31 08:56:40;;;;;;;2.33;1.80;;;;;;;7.29;62.63;94505.19;4997066;28;20215;-78
2023/12/31 08:59:06;;;;;;;3.67;2.10;;;;;;;7.45;62.95;94500.13;4996633;28;20195;-78
2023/12/31 09:01:31;;;;;;;2.67;2.07;;;;;;;7.42;62.61;94515.09;5000089;28;20213;-78
2023/12/31 09:03:58;;;;;;;2.47;1.80;;;;;;;7.38;63.12;94510.25;4994774;28;20224;-78
2023/12/31 09:06:23;;;;;;;2.50;2.13;;;;;;;7.47;62.67;94510.28;4992635;28;20195;-78
2023/12/31 09:08:49;;;;;;;3.03;1.70;;;;;;;7.62;62.16;94501.81;4996777;28;20184;-78
2023/12/31 09:11:15;;;;;;;2.80;2.07;;;;;;;7.67;61.87;94507.31;5002675;28;20318;-78
2023/12/31 09:13:41;;;;;;;1.93;1.80;;;;;;;7.56;62.64;94494.66;4996487;28;20682;-78
2023/12/31 09:16:06;;;;;;;1.90;1.80;;;;;;;7.82;61.86;94504.94;4996859;28;20218;-78
2023/12/31 09:18:31;;;;;;;3.43;1.73;;;;;;;7.74;61.69;94493.78;5000353;28;20211;-78
2023/12/31 09:20:57;;;;;;;2.37;1.97;;;;;;;7.64;62.05;94501.66;4998912;28;20270;-77
2023/12/31 09:23:22;;;;;;;2.27;1.90;;;;;;;7.72;61.97;94506.06;4997796;28;20322;-77
2023/12/31 09:25:47;;;;;;;1.83;1.60;;;;;;;7.69;62.01;94498.63;4997093;28;20192;-77
2023/12/31 09:28:13;;;;;;;2.40;2.00;;;;;;;7.71;61.65;94501.84;4981591;28;20203;-78
2023/12/31 09:30:38;;;;;;;2.30;2.00;;;;;;;7.64;61.95;94497.28;4997290;28;20274;-78
2023/12/31 09:33:03;;;;;;;2.23;1.70;;;;;;;7.71;61.35;94500.06;4978340;28;20196;-78
2023/12/31 09:35:29;;;;;;;5.17;2.87;;;;;;;7.80;61.17;94503.50;4981821;28;20191;-78
2023/12/31 09:37:54;;;;;;;4.37;2.77;;;;;;;7.99;60.66;94505.00;4997040;28;20207;-78
2023/12/31 09:40:20;;;;;;;5.53;3.60;;;;;;;8.01;60.72;94490.97;4997461;28;20203;-77
2023/12/31 09:42:49;;;;;;;4.20;2.70;;;;;;;7.83;60.87;94485.09;4979610;28;20271;-77
2023/12/31 09:45:24;;;;;;;3.90;2.90;;;;;;;8.08;60.31;94486.78;4985855;28;20187;-78
2023/12/31 09:47:50;;;;;;;4.80;2.70;;;;;;;8.11;59.78;94478.69;4993952;28;20574;-78
2023/12/31 09:50:22;;;;;;;2.63;2.13;;;;;;;8.10;60.39;94465.94;4999063;28;20608;-77
2023/12/31 09:52:47;;;;;;;3.63;2.50;;;;;;;7.82;60.28;94444.69;4997245;28;20204;-78
2023/12/31 09:55:15;;;;;;;2.37;1.80;;;;;;;7.72;60.26;94444.03;4981602;28;20199;-78
2023/12/31 09:57:42;;;;;;;3.27;1.97;;;;;;;7.67;59.91;94434.16;4979152;28;20222;-78
2023/12/31 10:00:08;;;;;;;2.87;1.97;;;;;;;7.78;60.01;94422.75;4997371;28;20218;-78
2023/12/31 10:02:34;;;;;;;2.03;1.80;;;;;;;7.93;59.31;94434.88;4996323;28;20231;-77
2023/12/31 10:05:00;;;;;;;2.17;1.70;;;;;;;7.98;59.66;94431.00;4977371;28;20683;-78
2023/12/31 10:07:26;;;;;;;1.90;1.67;;;;;;;8.02;59.56;94435.69;4994844;28;20216;-78
2023/12/31 10:09:52;;;;;;;2.67;2.13;;;;;;;8.00;59.76;94427.28;4980479;28;20192;-78
2023/12/31 10:12:17;;;;;;;2.13;1.70;;;;;;;8.03;59.52;94429.53;4997262;28;20623;-77
2023/12/31 10:14:42;;;;;;;2.30;2.10;;;;;;;7.95;59.29;94422.63;4988073;28;20223;-77
2023/12/31 10:17:09;;;;;;;2.50;2.03;;;;;;;8.11;59.41;94413.25;4986894;28;20234;-77
2023/12/31 10:19:34;;;;;;;3.23;1.73;;;;;;;8.07;59.56;94410.19;4988056;28;20192;-77
2023/12/31 10:21:59;;;;;;;3.10;2.00;;;;;;;8.18;59.49;94402.09;4995679;28;20650;-77
2023/12/31 10:24:29;;;;;;;3.57;1.77;;;;;;;8.25;59.24;94399.69;4989955;28;20191;-77
2023/12/31 10:26:55;;;;;;;2.27;1.97;;;;;;;7.98;59.87;94393.03;4994785;28;20696;-77
2023/12/31 10:29:21;;;;;;;4.03;2.60;;;;;;;8.14;60.14;94393.06;4981233;28;20247;-77
2023/12/31 10:31:48;;;;;;;6.20;3.40;;;;;;;8.17;60.20;94391.94;4990719;28;20702;-77
2023/12/31 10:34:15;;;;;;;7.50;3.20;;;;;;;8.28;60.08;94393.38;4973293;28;20254;-77
2023/12/31 10:36:40;;;;;;;7.43;3.20;;;;;;;8.32;59.58;94392.09;4978480;28;20208;-77
2023/12/31 10:39:06;;;;;;;10.00;3.73;;;;;;;8.55;59.67;94387.91;4991603;28;20195;-77
2023/12/31 10:41:35;;;;;;;3.93;2.43;;;;;;;8.37;60.59;94388.06;4991856;28;20824;-79
2023/12/31 10:44:03;;;;;;;3.90;2.07;;;;;;;8.39;61.10;94385.31;4993534;28;20207;-77
2023/12/31 10:46:30;;;;;;;3.43;1.80;;;;;;;8.50;61.05;94372.06;4995582;28;20197;-77
2023/12/31 10:49:03;;;;;;;1.73;1.63;;;;;;;8.36;61.49;94370.94;5004205;28;20218;-77
2023/12/31 10:51:29;;;;;;;2.47;1.63;;;;;;;8.27;61.28;94373.66;5000897;28;20203;-77
2023/12/31 10:53:57;;;;;;;1.90;1.70;;;;;;;8.49;61.49;94365.28;4999449;28;20184;-77
2023/12/31 10:56:24;;;;;;;2.80;2.47;;;;;;;8.40;62.39;94356.72;5010058;28;20184;-77
2023/12/31 10:58:51;;;;;;;2.07;1.87;;;;;;;8.24;62.67;94352.31;4980649;28;20222;-77
2023/12/31 11:01:17;;;;;;;2.93;2.17;;;;;;;8.29;63.35;94358.78;4982638;28;20197;-77
2023/12/31 11:03:42;;;;;;;1.60;1.50;;;;;;;8.34;63.96;94369.47;4994020;28;20184;-77
2023/12/31 11:06:09;;;;;;;3.17;2.00;;;;;;;8.40;65.26;94389.53;4980031;28;20187;-77
2023/12/31 11:08:37;;;;;;;3.40;3.10;;;;;;;8.44;67.46;94419.28;4978760;28;20215;-77
2023/12/31 11:11:02;;;;;;;2.90;2.17;;;;;;;8.35;70.74;94449.50;4979621;28;20274;-78
2023/12/31 11:13:28;;;;;;;4.77;3.23;;;;;;;8.20;73.41;94488.09;4996199;28;20623;-78
2023/12/31 11:15:55;;;;;;;8.07;4.00;;;;;;;7.53;80.36;94494.19;4976322;28;20188;-78
2023/12/31 11:18:26;;;;;;;2.60;1.80;;;;;;;7.47;84.55;94493.00;4979854;28;20203;-78
2023/12/31 11:21:16;;;;;;;3.90;2.50;;;;;;;7.49;85.48;94493.66;4995386;28;20192;-78
2023/12/31 11:24:13;;;;;;;3.07;2.00;;;;;;;7.53;86.68;94482.06;4990866;28;20188;-78
2023/12/31 11:26:40;;;;;;;3.10;1.43;;;;;;;7.51;86.29;94478.00;4995637;28;20588;-78
2023/12/31 11:29:09;;;;;;;2.17;1.50;;;;;;;7.44;87.59;94479.59;4994661;28;20558;-77
2023/12/31 11:31:38;;;;;;;1.53;1.43;;;;;;;7.64;86.39;94489.53;4994238;28;20212;-78
2023/12/31 11:34:04;;;;;;;3.10;1.50;;;;;;;7.60;85.89;94498.59;4992320;28;20195;-77
2023/12/31 11:36:31;;;;;;;0.97;0.87;;;;;;;7.45;85.95;94499.31;4997354;28;20549;-77